Time;durP1;ratioP1;P1;durP2;ratioP2;P2;SDS_P1;SDS_P2;PMS_P1;PMS_P2;Temp;Humidity;BMP_temperature;BMP_pressure;BME280_temperature;BME280_humidity;BME280_pressure;Samples;Min_cycle;Max_cycle;Signal;HPM_P1;HPM_P2
2022/08/30 00:05:00;;;;;;;0.80;0.52;;;;;;;15.37;83.78;100757.63;10569410;28;20043;-75
2022/08/30 00:10:03;;;;;;;1.42;0.98;;;;;;;15.32;84.16;100755.78;10568444;28;20032;-76
2022/08/30 00:15:06;;;;;;;1.80;1.00;;;;;;;15.33;83.85;100757.44;10566047;28;20036;-75
2022/08/30 00:20:12;;;;;;;2.88;0.85;;;;;;;15.36;84.46;100758.75;10570873;28;20044;-76
2022/08/30 00:25:15;;;;;;;1.13;0.73;;;;;;;15.27;84.66;100753.16;10571563;28;20032;-76
2022/08/30 00:30:19;;;;;;;2.33;0.77;;;;;;;15.18;85.32;100754.97;10572202;28;20039;-75
2022/08/30 00:35:21;;;;;;;1.48;0.90;;;;;;;15.17;85.80;100747.00;10567354;28;20498;-75
2022/08/30 00:40:24;;;;;;;1.10;0.77;;;;;;;15.15;86.51;100752.84;10567270;28;20036;-75
2022/08/30 00:45:29;;;;;;;2.80;1.25;;;;;;;15.18;86.33;100754.16;10570281;28;20047;-75
2022/08/30 00:50:36;;;;;;;1.63;0.80;;;;;;;15.22;86.59;100749.66;10566787;28;20457;-75
2022/08/30 00:55:59;;;;;;;1.25;0.80;;;;;;;15.28;86.78;100756.72;10568499;28;20043;-75
2022/08/30 01:01:03;;;;;;;2.60;0.90;;;;;;;15.28;86.85;100753.97;10570871;28;20063;-75
2022/08/30 01:06:11;;;;;;;3.88;0.70;;;;;;;15.34;87.01;100750.75;10567009;28;20036;-75
2022/08/30 01:11:16;;;;;;;1.92;0.82;;;;;;;15.39;86.83;100764.47;10567409;28;20035;-75
2022/08/30 01:16:18;;;;;;;1.48;0.77;;;;;;;15.41;87.13;100766.91;10568501;28;20044;-75
2022/08/30 01:21:23;;;;;;;1.48;0.85;;;;;;;15.45;87.45;100762.44;10569027;28;20063;-75
2022/08/30 01:26:28;;;;;;;1.85;0.90;;;;;;;15.47;87.19;100756.59;10569546;28;20441;-75
2022/08/30 01:31:31;;;;;;;2.45;0.60;;;;;;;15.51;87.83;100771.41;10570948;28;20055;-75
2022/08/30 01:36:41;;;;;;;1.45;0.90;;;;;;;15.50;88.19;100764.25;10568869;28;20032;-75
2022/08/30 01:41:44;;;;;;;3.22;0.90;;;;;;;15.50;88.25;100764.25;10552512;28;20497;-75
2022/08/30 01:46:47;;;;;;;3.25;0.90;;;;;;;15.50;89.08;100764.25;10569366;28;20032;-75
2022/08/30 01:51:49;;;;;;;1.42;0.70;;;;;;;15.48;89.34;100760.97;10567349;28;20449;-75
2022/08/30 02:02:23;;;;;;;0.77;0.50;;;;;;;15.36;90.08;100765.09;10568006;28;20133;-75
2022/08/30 02:07:25;;;;;;;0.40;0.40;;;;;;;15.35;90.49;100769.00;10566937;28;20040;-75
2022/08/30 02:12:29;;;;;;;0.40;0.40;;;;;;;15.39;90.54;100771.94;10548042;28;20047;-75
2022/08/30 02:17:32;;;;;;;0.68;0.40;;;;;;;15.32;91.28;100768.78;10567807;28;20044;-75
2022/08/30 02:22:34;;;;;;;0.80;0.50;;;;;;;15.23;91.29;100765.94;10564755;28;20036;-75
2022/08/30 02:27:36;;;;;;;0.50;0.40;;;;;;;15.18;91.97;100774.34;10565928;28;20094;-75
2022/08/30 02:32:40;;;;;;;0.45;0.45;;;;;;;15.14;92.28;100767.78;10567986;28;20054;-75
2022/08/30 02:37:42;;;;;;;0.85;0.50;;;;;;;15.07;92.69;100767.38;10567623;28;20651;-75
2022/08/30 02:42:44;;;;;;;1.05;0.30;;;;;;;15.01;92.87;100761.13;10568327;28;20059;-75
2022/08/30 02:47:46;;;;;;;0.40;0.30;;;;;;;15.01;92.63;100757.56;10547789;28;20593;-75
2022/08/30 02:52:49;;;;;;;0.85;0.55;;;;;;;14.99;92.90;100768.09;10565973;28;20052;-75
2022/08/30 02:57:51;;;;;;;1.52;0.55;;;;;;;14.83;92.80;100784.16;10582512;28;20047;-75
2022/08/30 03:02:53;;;;;;;0.93;0.52;;;;;;;14.78;92.52;100790.63;10567142;28;20047;-75
2022/08/30 03:07:55;;;;;;;0.60;0.40;;;;;;;14.75;92.33;100793.16;10560762;28;20417;-74
2022/08/30 03:12:58;;;;;;;0.57;0.57;;;;;;;14.74;92.77;100781.28;10564988;28;20036;-74
2022/08/30 03:18:01;;;;;;;0.47;0.30;;;;;;;14.70;92.55;100779.44;10565801;28;20044;-75
2022/08/30 03:23:03;;;;;;;1.08;0.50;;;;;;;14.67;92.46;100769.84;10565078;28;20040;-75
2022/08/30 03:28:06;;;;;;;0.85;0.50;;;;;;;14.69;92.62;100777.81;10547550;28;20052;-75
2022/08/30 03:33:08;;;;;;;0.40;0.40;;;;;;;14.66;92.04;100786.72;10559371;28;20044;-75
2022/08/30 03:38:10;;;;;;;0.30;0.30;;;;;;;14.63;91.86;100792.84;10565898;28;20036;-75
2022/08/30 03:43:12;;;;;;;0.32;0.32;;;;;;;14.64;90.77;100792.53;10564420;28;20044;-75
2022/08/30 03:48:14;;;;;;;0.50;0.50;;;;;;;14.61;89.76;100801.44;10563025;28;20040;-74
2022/08/30 03:53:17;;;;;;;1.02;0.28;;;;;;;14.59;88.93;100811.97;10562157;28;20055;-74
2022/08/30 03:58:19;;;;;;;0.43;0.40;;;;;;;14.57;87.76;100811.44;10568513;28;20038;-75
2022/08/30 04:03:24;;;;;;;0.38;0.38;;;;;;;14.61;86.74;100820.78;10607811;28;20445;-75
2022/08/30 04:08:26;;;;;;;1.95;0.40;;;;;;;14.61;86.10;100819.94;10589334;28;20055;-74
2022/08/30 04:13:29;;;;;;;0.43;0.40;;;;;;;14.60;85.60;100823.84;10595899;28;20417;-75
2022/08/30 04:18:31;;;;;;;1.30;0.57;;;;;;;14.63;85.37;100820.47;10567915;28;20046;-75
2022/08/30 04:23:33;;;;;;;0.75;0.40;;;;;;;14.63;84.90;100815.75;10611589;28;20040;-75
2022/08/30 04:28:35;;;;;;;0.40;0.40;;;;;;;14.65;84.86;100815.44;10554170;28;20048;-75
2022/08/30 04:33:38;;;;;;;0.60;0.43;;;;;;;14.64;85.04;100814.63;10581515;28;20044;-75
2022/08/30 04:38:40;;;;;;;1.90;0.65;;;;;;;14.60;84.65;100832.94;10565613;28;20048;-75
2022/08/30 04:43:44;;;;;;;1.83;0.80;;;;;;;14.56;84.81;100820.84;10590327;28;20047;-74
2022/08/30 04:48:46;;;;;;;2.90;0.52;;;;;;;14.47;84.87;100825.44;10584885;28;20075;-74
2022/08/30 04:53:48;;;;;;;4.50;0.70;;;;;;;14.45;84.76;100820.22;10574352;28;20044;-74
2022/08/30 04:58:52;;;;;;;0.40;0.40;;;;;;;14.44;85.01;100817.75;10574466;28;20081;-74
2022/08/30 05:03:55;;;;;;;1.30;0.60;;;;;;;14.35;85.06;100822.28;10573853;28;20044;-75
2022/08/30 05:08:59;;;;;;;1.17;0.75;;;;;;;14.32;85.65;100812.69;10546421;28;20528;-75
2022/08/30 05:14:01;;;;;;;0.50;0.50;;;;;;;14.33;85.50;100822.59;10573664;28;20043;-74
2022/08/30 05:19:04;;;;;;;2.95;0.70;;;;;;;14.31;85.38;100816.56;10573360;28;20051;-75
2022/08/30 05:24:06;;;;;;;2.58;0.70;;;;;;;14.27;85.72;100814.72;10560467;28;20042;-75
2022/08/30 05:29:08;;;;;;;2.53;0.55;;;;;;;14.23;85.54;100810.88;10611106;28;20048;-75
2022/08/30 05:34:10;;;;;;;1.30;0.82;;;;;;;14.16;85.53;100792.78;10600236;28;20040;-76
2022/08/30 05:39:13;;;;;;;2.50;0.75;;;;;;;14.14;86.12;100802.50;10581173;28;20032;-74
2022/08/30 05:44:15;;;;;;;1.88;0.63;;;;;;;14.09;86.69;100808.94;10603436;28;20036;-75
2022/08/30 05:49:17;;;;;;;0.65;0.40;;;;;;;14.17;86.59;100799.13;10599109;27;20047;-75
2022/08/30 05:54:19;;;;;;;0.68;0.60;;;;;;;14.22;86.67;100800.97;10605980;28;20438;-75
2022/08/30 05:59:21;;;;;;;0.40;0.40;;;;;;;14.25;86.22;100794.88;10598050;28;20486;-75
2022/08/30 06:04:24;;;;;;;0.90;0.60;;;;;;;14.22;86.18;100812.84;10583274;28;20043;-75
2022/08/30 06:09:26;;;;;;;2.05;0.60;;;;;;;14.15;86.51;100791.16;10608532;28;20047;-75
2022/08/30 06:14:28;;;;;;;0.88;0.50;;;;;;;14.16;86.41;100792.78;10600192;28;20425;-75
2022/08/30 06:19:30;;;;;;;3.53;0.65;;;;;;;14.15;86.86;100791.16;10600898;28;20441;-75
2022/08/30 06:24:35;;;;;;;0.35;0.22;;;;;;;14.24;86.74;100820.84;10610018;28;20524;-75
2022/08/30 06:29:37;;;;;;;1.10;0.50;;;;;;;14.29;87.12;100804.19;10584996;28;20044;-75
2022/08/30 06:34:39;;;;;;;0.57;0.30;;;;;;;14.34;86.98;100812.38;10599766;28;20035;-73
2022/08/30 06:39:41;;;;;;;0.63;0.63;;;;;;;14.27;87.18;100798.16;10573009;28;20063;-71
2022/08/30 06:44:44;;;;;;;1.92;1.00;;;;;;;14.16;87.39;100809.34;10592106;28;20051;-73
2022/08/30 06:49:46;;;;;;;0.43;0.43;;;;;;;14.07;87.65;100810.34;10583118;28;20048;-71
2022/08/30 06:54:49;;;;;;;0.52;0.35;;;;;;;14.02;87.86;100813.97;10597838;28;20038;-71
2022/08/30 06:59:56;;;;;;;0.68;0.47;;;;;;;13.95;88.59;100807.22;10585140;28;20633;-72
2022/08/30 07:04:58;;;;;;;0.63;0.50;;;;;;;13.91;88.80;100817.22;10578337;28;20044;-73
2022/08/30 07:10:02;;;;;;;0.55;0.43;;;;;;;13.86;89.62;100818.09;10592135;28;20469;-73
2022/08/30 07:15:05;;;;;;;1.30;0.40;;;;;;;13.79;90.02;100824.00;10561571;28;20041;-73
2022/08/30 07:20:10;;;;;;;2.95;0.93;;;;;;;13.79;90.81;100825.94;10589876;28;20508;-71
2022/08/30 07:25:14;;;;;;;0.43;0.40;;;;;;;13.73;90.75;100821.63;10591974;28;20523;-71
2022/08/30 07:30:17;;;;;;;1.20;0.70;;;;;;;13.72;91.13;100831.00;10606246;28;20050;-73
2022/08/30 07:35:19;;;;;;;1.75;0.60;;;;;;;13.69;91.39;100821.38;10598749;28;20036;-71
2022/08/30 07:40:21;;;;;;;0.32;0.30;;;;;;;13.65;91.93;100816.75;10588517;28;20040;-71
2022/08/30 07:45:23;;;;;;;0.82;0.40;;;;;;;13.61;92.13;100808.25;10587894;28;20058;-71
2022/08/30 07:50:26;;;;;;;1.10;0.57;;;;;;;13.61;92.35;100796.41;10587692;28;20050;-71
2022/08/30 07:55:28;;;;;;;0.52;0.52;;;;;;;13.63;91.71;100817.06;10586485;28;20525;-72
2022/08/30 08:00:30;;;;;;;5.85;1.10;;;;;;;13.69;91.19;100842.63;10573040;28;20031;-74
2022/08/30 08:05:40;;;;;;;2.88;0.57;;;;;;;13.72;90.80;100825.50;10581459;28;20044;-74
2022/08/30 08:10:42;;;;;;;2.47;1.00;;;;;;;13.75;90.23;100805.59;10586949;28;20421;-74
2022/08/30 08:15:45;;;;;;;2.88;0.70;;;;;;;13.83;89.56;100818.69;10601024;28;20036;-74
2022/08/30 08:20:47;;;;;;;1.75;0.63;;;;;;;13.91;89.35;100834.59;10589779;28;20681;-73
2022/08/30 08:25:49;;;;;;;0.93;0.60;;;;;;;13.94;88.70;100822.94;10597112;28;20047;-74
2022/08/30 08:30:54;;;;;;;1.10;0.57;;;;;;;13.95;88.77;100843.09;10593231;28;20055;-74
2022/08/30 08:35:56;;;;;;;2.83;0.65;;;;;;;13.93;89.07;100832.34;10572401;28;20039;-74
2022/08/30 08:41:05;;;;;;;1.95;0.82;;;;;;;13.94;88.58;100836.75;10578380;28;20055;-78
2022/08/30 08:46:31;;;;;;;3.40;1.15;;;;;;;13.99;88.42;100847.69;10580087;28;20513;-74
2022/08/30 08:56:59;;;;;;;2.40;0.80;;;;;;;13.85;88.93;100835.75;10580411;28;20032;-75
2022/08/30 09:02:25;;;;;;;1.08;0.77;;;;;;;13.85;88.90;100846.81;10572654;28;20055;-75
2022/08/30 09:07:38;;;;;;;2.00;0.98;;;;;;;13.87;88.51;100837.09;10571921;28;20040;-75
2022/08/30 09:12:43;;;;;;;2.15;0.75;;;;;;;13.94;87.77;100839.50;10586035;28;20036;-73
2022/08/30 09:17:56;;;;;;;0.35;0.30;;;;;;;14.00;86.88;100831.97;10611344;28;20039;-75
2022/08/30 09:23:12;;;;;;;3.55;0.75;;;;;;;14.09;86.25;100835.69;10571809;28;20063;-75
2022/08/30 09:28:20;;;;;;;4.80;0.82;;;;;;;14.16;85.64;100841.66;10567522;28;20032;-75
2022/08/30 09:33:23;;;;;;;0.88;0.47;;;;;;;14.18;84.86;100829.19;10572939;28;20047;-75
2022/08/30 09:38:29;;;;;;;1.70;0.52;;;;;;;14.26;84.22;100829.63;10568187;28;20032;-75
2022/08/30 09:43:33;;;;;;;2.78;0.40;;;;;;;14.32;83.64;100828.41;10529131;28;20055;-75
2022/08/30 09:48:44;;;;;;;10.40;2.13;;;;;;;14.37;83.63;100842.94;10528988;28;20067;-75
2022/08/30 09:54:06;;;;;;;1.83;0.50;;;;;;;14.37;82.81;100836.59;10539975;28;20538;-75
2022/08/30 09:59:30;;;;;;;1.50;0.70;;;;;;;14.40;82.95;100824.97;10571684;28;20044;-75
2022/08/30 10:04:39;;;;;;;2.00;0.98;;;;;;;14.42;82.64;100831.03;10571476;28;20048;-75
2022/08/30 10:10:10;;;;;;;2.55;1.05;;;;;;;14.40;82.75;100831.28;10549405;28;20594;-75
2022/08/30 10:15:50;;;;;;;0.68;0.57;;;;;;;14.37;82.59;100833.84;10525015;28;20060;-75
2022/08/30 10:21:07;;;;;;;1.20;0.45;;;;;;;14.39;82.78;100834.38;10551920;28;20056;-75
2022/08/30 10:26:09;;;;;;;0.60;0.40;;;;;;;14.39;82.72;100820.56;10546893;28;20494;-75
2022/08/30 10:31:24;;;;;;;1.42;0.60;;;;;;;14.37;82.48;100842.94;10540393;28;20060;-75
2022/08/30 10:36:32;;;;;;;2.30;1.05;;;;;;;14.32;82.04;100840.28;10528054;28;20036;-75
2022/08/30 10:41:45;;;;;;;1.02;0.82;;;;;;;14.30;82.02;100836.19;10555606;28;20406;-75
2022/08/30 10:47:01;;;;;;;3.75;1.13;;;;;;;14.29;81.92;100840.88;10536765;28;20058;-75
2022/08/30 10:52:15;;;;;;;4.53;0.93;;;;;;;14.25;81.57;100847.31;10567087;28;20528;-75
2022/08/30 10:57:18;;;;;;;2.38;0.30;;;;;;;14.22;81.51;100834.91;10567672;28;20409;-75
2022/08/30 11:02:39;;;;;;;0.30;0.30;;;;;;;14.21;81.00;100818.66;10566265;28;20048;-75
2022/08/30 11:07:48;;;;;;;1.23;0.98;;;;;;;14.22;80.97;100828.56;10568580;28;20063;-75
2022/08/30 11:13:04;;;;;;;3.30;0.80;;;;;;;14.24;80.19;100820.84;10551579;28;20040;-75
2022/08/30 11:18:07;;;;;;;3.10;0.85;;;;;;;14.25;79.73;100825.25;10564592;28;20032;-75
2022/08/30 11:23:18;;;;;;;2.85;1.35;;;;;;;14.26;79.77;100821.34;10556159;28;20047;-75
2022/08/30 11:28:45;;;;;;;0.20;0.20;;;;;;;14.26;78.84;100835.16;10565241;28;20132;-74
2022/08/30 11:33:58;;;;;;;0.60;0.52;;;;;;;14.24;77.91;100820.84;10565939;28;20040;-75
2022/08/30 11:39:04;;;;;;;3.30;0.60;;;;;;;14.23;78.01;100821.94;10582091;28;20056;-75
2022/08/30 11:44:23;;;;;;;0.55;0.45;;;;;;;14.27;78.04;100809.19;10574887;28;20040;-75
2022/08/30 11:49:44;;;;;;;0.93;0.77;;;;;;;14.29;76.94;100804.19;10570554;28;20056;-74
2022/08/30 11:54:50;;;;;;;3.53;1.05;;;;;;;14.30;77.02;100795.59;10574248;28;20040;-75
2022/08/30 12:00:04;;;;;;;1.17;0.47;;;;;;;14.27;76.64;100796.22;10574820;28;20032;-75
2022/08/30 12:05:43;;;;;;;0.85;0.65;;;;;;;14.25;77.15;100803.16;10575138;28;20039;-75
2022/08/30 12:11:09;;;;;;;0.55;0.38;;;;;;;14.23;76.90;100769.50;10573428;28;20047;-74
2022/08/30 12:16:18;;;;;;;1.58;0.40;;;;;;;14.19;77.23;100783.91;10572546;28;20043;-74
2022/08/30 12:21:20;;;;;;;2.58;0.75;;;;;;;14.14;77.43;100786.75;10563567;28;20051;-74
2022/08/30 12:26:23;;;;;;;9.60;1.15;;;;;;;14.10;78.06;100773.88;10569201;28;20635;-73
2022/08/30 12:31:25;;;;;;;0.75;0.75;;;;;;;14.05;78.29;100776.69;10575301;28;20040;-72
2022/08/30 12:36:38;;;;;;;2.95;0.95;;;;;;;13.99;78.95;100778.72;10572865;28;20040;-73
2022/08/30 12:41:43;;;;;;;2.80;0.80;;;;;;;13.93;78.94;100773.59;10564728;28;20513;-74
2022/08/30 12:46:48;;;;;;;2.67;0.70;;;;;;;13.88;79.36;100774.47;10583003;28;20036;-74
2022/08/30 12:51:50;;;;;;;3.75;1.00;;;;;;;13.84;79.21;100757.72;10571264;28;20039;-73
2022/08/30 12:56:55;;;;;;;1.65;0.75;;;;;;;13.80;79.74;100756.69;10587541;27;20048;-74
2022/08/30 13:02:07;;;;;;;0.88;0.40;;;;;;;13.75;79.78;100748.50;10577850;28;20036;-74
2022/08/30 13:07:09;;;;;;;0.93;0.70;;;;;;;13.72;80.39;100759.31;10582445;28;20046;-73
2022/08/30 13:12:26;;;;;;;3.35;0.75;;;;;;;13.63;81.35;100772.13;10587361;28;20421;-74
2022/08/30 13:17:28;;;;;;;0.30;0.30;;;;;;;13.59;82.14;100769.16;10612482;28;20532;-75
2022/08/30 13:22:31;;;;;;;3.03;0.80;;;;;;;13.53;82.47;100795.94;10593719;28;20509;-76
2022/08/30 13:27:36;;;;;;;0.50;0.50;;;;;;;13.39;84.87;100784.03;10591767;28;20048;-76
2022/08/30 13:32:38;;;;;;;3.08;1.35;;;;;;;13.23;85.98;100797.19;10580026;28;20421;-75
2022/08/30 13:37:41;;;;;;;2.10;1.35;;;;;;;13.10;87.01;100814.41;10583082;28;20047;-74
2022/08/30 13:42:43;;;;;;;1.05;0.70;;;;;;;12.98;88.23;100813.97;10567200;28;20044;-75
2022/08/30 13:47:47;;;;;;;0.68;0.65;;;;;;;12.81;89.23;100806.19;10568300;28;20044;-74
2022/08/30 13:52:49;;;;;;;0.60;0.55;;;;;;;12.71;90.20;100833.03;10564609;28;20039;-74
2022/08/30 13:57:51;;;;;;;4.88;1.15;;;;;;;12.60;90.69;100843.31;10572476;28;20418;-75
2022/08/30 14:02:54;;;;;;;2.15;0.80;;;;;;;12.53;91.30;100853.84;10568691;28;20051;-75
2022/08/30 14:07:58;;;;;;;2.25;0.80;;;;;;;12.49;92.46;100866.50;10566521;28;20134;-77
2022/08/30 14:13:00;;;;;;;0.80;0.70;;;;;;;12.45;92.38;100881.97;10565065;28;20035;-74
2022/08/30 14:18:04;;;;;;;0.70;0.60;;;;;;;12.40;93.64;100895.78;10561379;28;20055;-78
2022/08/30 14:23:08;;;;;;;1.60;0.80;;;;;;;12.36;94.28;100898.28;10566414;28;20052;-84
2022/08/30 14:28:13;;;;;;;1.48;0.80;;;;;;;12.32;94.70;100895.28;10548586;28;20044;-81
2022/08/30 14:33:19;;;;;;;1.98;0.73;;;;;;;12.30;94.91;100888.41;10584940;27;20036;-79
2022/08/30 14:38:21;;;;;;;3.55;0.90;;;;;;;12.26;96.13;100882.66;10571286;28;20040;-79
2022/08/30 14:43:23;;;;;;;0.52;0.40;;;;;;;12.20;96.90;100878.31;10568031;28;20052;-80
2022/08/30 14:48:25;;;;;;;0.60;0.43;;;;;;;12.14;96.95;100873.13;10568500;28;20055;-82
2022/08/30 14:53:30;;;;;;;2.70;0.90;;;;;;;12.07;97.60;100846.75;10565444;28;20036;-78
2022/08/30 14:58:32;;;;;;;0.52;0.52;;;;;;;12.01;97.98;100849.84;10570065;28;20048;-83
2022/08/30 15:03:35;;;;;;;1.38;0.75;;;;;;;11.95;98.75;100831.72;10562066;28;22248;-80
2022/08/30 15:08:38;;;;;;;2.17;0.80;;;;;;;11.91;98.51;100819.66;10577284;28;20039;-80
2022/08/30 15:13:43;;;;;;;1.05;0.63;;;;;;;11.90;98.96;100807.81;10564029;28;20062;-78
2022/08/30 15:18:46;;;;;;;0.40;0.38;;;;;;;11.90;99.25;100804.25;10555667;28;20524;-78
2022/08/30 15:23:48;;;;;;;0.85;0.80;;;;;;;11.90;99.38;100796.00;10562834;28;20052;-79
2022/08/30 15:28:51;;;;;;;2.15;0.80;;;;;;;11.87;100.00;100794.66;10579766;28;20040;-79
2022/08/30 15:33:54;;;;;;;0.52;0.50;;;;;;;11.87;99.80;100789.16;10525745;28;20041;-79
2022/08/30 15:38:58;;;;;;;0.30;0.30;;;;;;;11.85;100.00;100782.31;10567149;28;20062;-79
2022/08/30 15:44:01;;;;;;;1.40;0.77;;;;;;;11.86;100.00;100779.28;10570003;28;20043;-78
2022/08/30 15:49:32;;;;;;;0.80;0.55;;;;;;;11.82;100.00;100782.88;10567874;28;20048;-79
2022/08/30 15:54:34;;;;;;;5.10;0.77;;;;;;;11.75;100.00;100769.41;10562999;28;20055;-78
2022/08/30 15:59:36;;;;;;;0.38;0.38;;;;;;;11.73;100.00;100779.88;10565462;28;20038;-78
2022/08/30 16:04:39;;;;;;;0.50;0.50;;;;;;;11.71;100.00;100782.09;10529794;28;20044;-78
2022/08/30 16:09:41;;;;;;;0.77;0.77;;;;;;;11.69;100.00;100765.88;10562357;28;20559;-78
2022/08/30 16:14:43;;;;;;;0.47;0.47;;;;;;;11.66;100.00;100768.38;10565390;28;20040;-78
2022/08/30 16:19:46;;;;;;;1.58;0.88;;;;;;;11.60;100.00;100767.59;10573469;28;20043;-78
2022/08/30 16:24:48;;;;;;;1.77;0.73;;;;;;;11.53;100.00;100780.81;10571595;28;20052;-78
2022/08/30 16:29:50;;;;;;;0.45;0.45;;;;;;;11.51;100.00;100765.72;10572085;28;20044;-79
2022/08/30 16:34:52;;;;;;;3.25;1.58;;;;;;;11.45;100.00;100778.66;10555137;28;20390;-78
2022/08/30 16:39:55;;;;;;;1.23;0.80;;;;;;;11.42;100.00;100768.25;10572380;28;20409;-79
2022/08/30 16:44:57;;;;;;;0.63;0.47;;;;;;;11.40;100.00;100759.47;10546800;28;20403;-78
2022/08/30 16:49:59;;;;;;;1.52;0.82;;;;;;;11.35;100.00;100748.50;10543315;28;20040;-80
2022/08/30 16:55:01;;;;;;;1.50;0.63;;;;;;;11.31;100.00;100758.44;10542637;28;20549;-79
2022/08/30 17:00:07;;;;;;;3.35;1.20;;;;;;;11.33;100.00;100761.72;10547946;28;20561;-79
2022/08/30 17:05:10;;;;;;;1.02;0.75;;;;;;;11.30;100.00;100763.09;10531205;28;20040;-80
2022/08/30 17:10:13;;;;;;;0.98;0.73;;;;;;;11.29;100.00;100757.91;10565272;28;20529;-79
2022/08/30 17:15:15;;;;;;;1.58;1.00;;;;;;;11.27;100.00;100760.09;10572792;28;20040;-79
2022/08/30 17:20:18;;;;;;;2.88;1.33;;;;;;;11.23;100.00;100767.25;10572897;28;20529;-79
2022/08/30 17:25:20;;;;;;;0.80;0.60;;;;;;;11.20;100.00;100754.09;10569811;28;20066;-79
2022/08/30 17:30:23;;;;;;;2.30;0.98;;;;;;;11.15;100.00;100772.25;10571051;28;20062;-79
2022/08/30 17:35:25;;;;;;;0.82;0.63;;;;;;;11.14;100.00;100756.88;10568799;28;20399;-79
2022/08/30 17:40:27;;;;;;;2.03;0.93;;;;;;;11.14;100.00;100753.31;10571956;28;20051;-79
2022/08/30 17:45:29;;;;;;;1.20;0.70;;;;;;;11.10;100.00;100772.25;10568747;28;20569;-79
2022/08/30 17:50:33;;;;;;;0.50;0.50;;;;;;;11.06;100.00;100781.34;10567428;28;20063;-79
2022/08/30 17:55:35;;;;;;;0.90;0.85;;;;;;;11.06;100.00;100762.09;10565407;28;20039;-79
2022/08/30 18:00:38;;;;;;;0.90;0.63;;;;;;;11.04;100.00;100770.63;10553121;28;20055;-79
2022/08/30 18:05:40;;;;;;;6.03;0.90;;;;;;;10.99;100.00;100791.81;10560432;28;20043;-79
2022/08/30 18:10:42;;;;;;;0.57;0.55;;;;;;;10.95;100.00;100797.03;10565670;28;20048;-79
2022/08/30 18:15:45;;;;;;;1.45;0.73;;;;;;;10.90;100.00;100783.31;10569133;28;20502;-79
2022/08/30 18:20:47;;;;;;;0.95;0.70;;;;;;;10.82;100.00;100790.22;10551468;28;20060;-79
2022/08/30 18:25:54;;;;;;;2.78;0.50;;;;;;;10.76;100.00;100768.53;10562502;28;20485;-79
2022/08/30 18:30:56;;;;;;;0.20;0.20;;;;;;;10.76;100.00;100776.75;10568787;28;20074;-79
2022/08/30 18:35:59;;;;;;;0.52;0.52;;;;;;;10.73;100.00;100783.63;10568962;28;20485;-79
2022/08/30 18:41:05;;;;;;;0.40;0.30;;;;;;;10.68;100.00;100769.94;10567270;28;20047;-79
2022/08/30 18:46:09;;;;;;;1.10;0.47;;;;;;;10.65;100.00;100761.44;10567543;28;20058;-79
2022/08/30 18:51:17;;;;;;;0.40;0.40;;;;;;;10.62;100.00;100778.47;10564301;28;20051;-79
2022/08/30 18:56:19;;;;;;;1.65;0.57;;;;;;;10.62;100.00;100754.59;10549759;28;20043;-79
2022/08/30 19:01:21;;;;;;;0.82;0.50;;;;;;;10.61;100.00;100754.88;10550621;28;20040;-79
2022/08/30 19:06:24;;;;;;;0.30;0.30;;;;;;;10.63;100.00;100760.91;10580072;28;20046;-79
2022/08/30 19:11:26;;;;;;;0.43;0.43;;;;;;;10.62;100.00;100803.16;10576033;28;20040;-79
2022/08/30 19:16:29;;;;;;;0.50;0.30;;;;;;;10.61;100.00;100768.59;10566767;28;20060;-79
2022/08/30 19:21:33;;;;;;;0.40;0.40;;;;;;;10.55;99.97;100790.53;10567504;28;20139;-78
2022/08/30 19:26:37;;;;;;;0.30;0.30;;;;;;;10.55;99.26;100770.50;10566951;28;20055;-78
2022/08/30 19:31:40;;;;;;;0.40;0.40;;;;;;;10.57;99.50;100749.91;10565549;28;20044;-78
2022/08/30 19:36:42;;;;;;;1.08;0.35;;;;;;;10.58;99.26;100750.75;10537748;28;20047;-78
2022/08/30 19:41:45;;;;;;;1.38;0.40;;;;;;;10.58;99.16;100742.50;10565867;28;20044;-78
2022/08/30 19:46:50;;;;;;;0.47;0.40;;;;;;;10.56;98.68;100744.72;10564444;28;20048;-79
2022/08/30 19:51:52;;;;;;;0.15;0.15;;;;;;;10.56;99.43;100753.75;10571900;28;20126;-78
2022/08/30 19:56:54;;;;;;;3.33;0.40;;;;;;;10.49;99.36;100736.78;10575205;28;20040;-78
2022/08/30 20:01:56;;;;;;;0.57;0.22;;;;;;;10.47;99.05;100760.94;10557874;28;20126;-78
2022/08/30 20:06:59;;;;;;;0.70;0.20;;;;;;;10.45;99.64;100743.09;10574947;28;20044;-77
2022/08/30 20:12:02;;;;;;;3.05;0.70;;;;;;;10.43;99.69;100745.31;10591803;28;20040;-77
2022/08/30 20:17:07;;;;;;;0.60;0.40;;;;;;;10.39;99.68;100742.28;10574561;28;20533;-78
2022/08/30 20:22:09;;;;;;;0.90;0.32;;;;;;;10.37;99.30;100749.97;10575860;28;20044;-77
2022/08/30 20:27:11;;;;;;;0.25;0.13;;;;;;;10.35;99.36;100740.38;10560965;28;20040;-77
2022/08/30 20:32:16;;;;;;;0.43;0.25;;;;;;;10.30;99.74;100727.50;10574902;28;20043;-79
2022/08/30 20:37:22;;;;;;;0.77;0.20;;;;;;;10.29;99.95;100727.78;10575082;28;20032;-79
2022/08/30 20:42:25;;;;;;;0.30;0.30;;;;;;;10.22;100.00;100728.03;10535803;28;20040;-79
2022/08/30 20:47:27;;;;;;;0.77;0.45;;;;;;;10.19;99.67;100714.84;10571032;28;20199;-81
2022/08/30 20:52:29;;;;;;;0.10;0.10;;;;;;;10.16;100.00;100718.16;10571993;28;20036;-80
2022/08/30 20:57:32;;;;;;;0.57;0.13;;;;;;;10.14;100.00;100721.19;10572769;28;20043;-80
2022/08/30 21:02:35;;;;;;;0.65;0.20;;;;;;;10.14;100.00;100703.91;10572144;28;20052;-79
2022/08/30 21:07:38;;;;;;;0.30;0.30;;;;;;;10.12;100.00;100708.84;10572444;28;20028;-79
2022/08/30 21:12:41;;;;;;;0.10;0.10;;;;;;;10.13;100.00;100699.53;10589108;28;20052;-78
2022/08/30 21:17:46;;;;;;;0.10;0.10;;;;;;;10.10;100.00;100697.34;10571756;28;20036;-77
2022/08/30 21:22:49;;;;;;;0.20;0.20;;;;;;;10.10;100.00;100691.84;10561231;28;20055;-77
2022/08/30 21:27:52;;;;;;;1.63;0.40;;;;;;;10.08;100.00;100688.56;10572750;28;20058;-77
2022/08/30 21:32:55;;;;;;;0.10;0.10;;;;;;;10.11;100.00;100690.75;10563142;28;20075;-77
2022/08/30 21:37:57;;;;;;;0.35;0.30;;;;;;;10.10;100.00;100665.25;10529620;28;20667;-75
2022/08/30 21:42:59;;;;;;;0.20;0.20;;;;;;;10.09;100.00;100690.22;10567138;28;20051;-91
2022/08/30 21:48:02;;;;;;;0.98;0.47;;;;;;;10.08;100.00;100675.69;10553771;28;20051;-77
2022/08/30 21:53:04;;;;;;;0.20;0.20;;;;;;;10.06;100.00;100664.16;10571491;28;20044;-77
2022/08/30 21:58:07;;;;;;;0.10;0.10;;;;;;;10.05;100.00;100657.03;10550095;28;20040;-75
2022/08/30 22:03:09;;;;;;;0.45;0.25;;;;;;;10.07;100.00;100652.13;10539801;28;20039;-75
2022/08/30 22:08:11;;;;;;;0.95;0.30;;;;;;;10.06;100.00;100655.91;10569637;28;20055;-77
2022/08/30 22:13:14;;;;;;;2.17;0.40;;;;;;;10.05;100.00;100640.56;10574089;28;20035;-77
2022/08/30 22:18:16;;;;;;;0.93;0.40;;;;;;;10.07;100.00;100626.63;10547697;28;20040;-76
2022/08/30 22:23:18;;;;;;;0.35;0.35;;;;;;;10.07;100.00;100643.88;10565581;28;20043;-77
2022/08/30 22:28:21;;;;;;;0.20;0.20;;;;;;;10.09;100.00;100641.69;10570395;28;20028;-77
2022/08/30 22:33:24;;;;;;;0.57;0.57;;;;;;;10.14;100.00;100635.34;10539818;28;20083;-76
2022/08/30 22:38:26;;;;;;;1.52;0.50;;;;;;;10.13;100.00;100637.28;10585777;28;20031;-76
2022/08/30 22:43:28;;;;;;;0.20;0.20;;;;;;;10.14;100.00;100635.34;10582880;28;20390;-77
2022/08/30 22:48:32;;;;;;;0.20;0.20;;;;;;;10.12;100.00;100621.09;10601886;28;20047;-77
2022/08/30 22:53:35;;;;;;;0.32;0.32;;;;;;;10.14;100.00;100618.91;10577873;28;20046;-77
2022/08/30 22:58:37;;;;;;;0.47;0.30;;;;;;;10.16;100.00;100613.97;10588780;28;20524;-77
2022/08/30 23:03:39;;;;;;;0.40;0.30;;;;;;;10.16;100.00;100619.44;10603938;28;20055;-77
2022/08/30 23:08:42;;;;;;;0.35;0.35;;;;;;;10.17;100.00;100608.19;10582873;28;20048;-77
2022/08/30 23:13:44;;;;;;;0.25;0.25;;;;;;;10.20;100.00;100621.34;10586706;28;20047;-77
2022/08/30 23:18:47;;;;;;;0.30;0.30;;;;;;;10.23;100.00;100611.75;10571015;28;20043;-77
